Merrill Field Anchorage US
ICAO: PAMR
IATA:
Category: Medium
Scheduled Services:

Elevation: 137 ft
TransAlt. 18000 ft.

Airport Communications:
ANCHORAGE APP/DEP:119.1
ATIS:124.25
CTAF:126
KENAI RDO:122.2
GND:121.7
KENAI RDO:122.3
TWR:126
UNICOM:122.95

PAMR Zoom In..

Runways:

(A) RW 05 length 2000 ft width 60 ft
---- / hdg 47

(B) RW 07 length 4000 ft width 100 ft
---- / hdg 71

(C) RW 16 length 2640 ft width 75 ft
---- / hdg 161

(D) RW 23 length 2000 ft width 60 ft
---- / hdg 227

(E) RW 25 length 4000 ft width 100 ft
---- / hdg 251

(F) RW 34 length 2640 ft width 75 ft
---- / hdg 341

Location; PAMR
Day. 23 / Time. 14.53 Zulu
* Altimeter: 29.80
* Temperature: -10° c. -14°f.
* Wind from: 340° Speed 05 kn.
Dewpoint: -11° c.
Visibility: 1 m.
Clouds: Few 800 ft.
Clouds: Overcast 2000 ft.
Conditions: Light Snow.Conditions: Mist.

PAMR 231453Z 34005KT 1 1/2SM -SN BR FEW008 OVC020 M10/M11 A2980 RMK AO2 SLP094 P0002 60003 T11001111 53012 $


Wind From 340°
Speed 05 kn.

YouTube Music Video
 
jpsmedia.com for Web Design  worldairports.se 2018   terms of use